Accueil
METAR-TAF:

METAR-TAF

Aéroports :

Tarawa, Kiribati

Aéroport international de Bonriki

latitude: 01-21N, longitude: 172-55E, altitude: 2 m

Observation

Le bulletin a été fait il y a 21 minutes, à 15:00 UTC
Vent 5 kt de sud-est
Température 27°C
Humidité 89%
Pression 1007 hPa
Visibilité 10 km ou plus
Nuages épars à une hauteur de 1800 ft, Cumulus congestus.

METAR: NGTA 231500Z 14005KT 9999 SCT018TCU 27/25 Q1007

Heure: 05:21 (15:21 UTC)

Prévision

Le bulletin a été fait il y a 4 heures et 5 minutes, à 11:16 UTC
Prévision valable du 23 à 12 UTC au 24 à 12 UTC
Vent 7 kt de sud/sud-est
Visibilité 10 km ou plus
Quelques nuages à une hauteur de 1900 ft

TAF: NGTA 231116Z 2312/2412 15007KT 9999 FEW019

Observations et prévisions météorologiques de plus de 4000 aéroports (messages METAR et TAF).

Les stations disponibles sont représentées par des disques jaunes et rouges sur la carte.

Passer la souris dessus pour voir le nom de la station.

Cliquer dessus pour voir les observations et prévisions météorologiques.

Pour changer de carte: cliquez sur les boutons verts avec une croix noire pour zoomer, sur le bouton vert avec un tiret pour effectuer un zoom arrière, ou sur les flèches vertes pour les cartes adjacentes.


METAR-TAF: